Georg Jacob — A8XG5 — position and weather

sailwx.info

Track history (hours):
 
Tides and Currents Weather Stations Pressure Air Temp Water Temp Dewpoint Dewpoint Depression Visibility Wind Speed Wind Dir Waves Ship Positions

Georg Jacob

Last reported at 2016-Jun-02 05:33 UTC. Time now 2016-Jul-02 04:05 UTC.
Position N 01°56' E 102°18'.
Warning: this ship's position is 29 days out of date.

Length 229 m; draft 8.5 m.

Type: Tanker. MMSI: 636092136.

Date/timePositionNaut miles runAvg speedWind from/ knotsBaromVisibWave heightAir tempDewpointWater temp
2016-Jun-02 05:33N 01°56' E 102°18'1312.7
2016-Jun-02 04:33N 01°51' E 102°29'1313.1
2016-Jun-02 03:32N 01°45' E 102°41'3811.8
2016-Jun-02 00:19N 01°25' E 103°14'3011.0
2016-Jun-01 21:33N 01°10' E 103°40'10 9.8
2016-Jun-01 20:33N 01°11' E 103°50'1010.6
2016-Jun-01 19:33N 01°16' E 103°60'2 2.1
2016-Jun-01 18:30N 01°17' E 104°01'0 0.0
2016-Jun-01 16:30N 01°17' E 104°01'0 0.0
2016-Jun-01 15:30N 01°17' E 104°01'0 0.1
2016-Jun-01 14:12N 01°17' E 104°01'0 0.1
2016-Jun-01 13:33N 01°17' E 104°01'0 0.0
2016-Jun-01 12:33N 01°17' E 104°01'0 0.0
2016-Jun-01 11:06N 01°17' E 104°01'0 0.1
2016-Jun-01 10:30N 01°17' E 104°01'0 0.0
2016-Jun-01 09:30N 01°17' E 104°01'0 0.1
2016-Jun-01 07:30N 01°17' E 104°01'0 0.2
2016-Jun-01 06:30N 01°17' E 104°01'0 0.1
2016-Jun-01 05:27N 01°17' E 104°01'0 0.0
2016-Jun-01 04:33N 01°17' E 104°01'0 0.1
2016-Jun-01 03:24N 01°17' E 104°01'0 0.0
2016-Jun-01 02:18N 01°17' E 104°01'3 3.7
2016-Jun-01 01:34N 01°16' E 103°59'5 4.8
2016-Jun-01 00:33N 01°16' E 104°04'  
Track history (hours):
 
Tides and Currents Weather Stations Pressure Air Temp Water Temp Dewpoint Dewpoint Depression Visibility Wind Speed Wind Dir Waves Ship Positions

Georg Jacob

Last reported at 2016-Jun-02 05:33 UTC. Time now 2016-Jul-02 04:05 UTC.
Position N 01°56' E 102°18'.
Warning: this ship's position is 29 days out of date.

Length 229 m; draft 8.5 m.

Type: Tanker. MMSI: 636092136.

Date/timePositionNaut miles runAvg speedWind from/ knotsBaromVisibWave heightAir tempDewpointWater temp
2016-Jun-02 05:33N 01°56' E 102°18'1312.7
2016-Jun-02 04:33N 01°51' E 102°29'1313.1
2016-Jun-02 03:32N 01°45' E 102°41'3811.8
2016-Jun-02 00:19N 01°25' E 103°14'3011.0
2016-Jun-01 21:33N 01°10' E 103°40'10 9.8
2016-Jun-01 20:33N 01°11' E 103°50'1010.6
2016-Jun-01 19:33N 01°16' E 103°60'2 2.1
2016-Jun-01 18:30N 01°17' E 104°01'0 0.0
2016-Jun-01 16:30N 01°17' E 104°01'0 0.0
2016-Jun-01 15:30N 01°17' E 104°01'0 0.1
2016-Jun-01 14:12N 01°17' E 104°01'0 0.1
2016-Jun-01 13:33N 01°17' E 104°01'0 0.0
2016-Jun-01 12:33N 01°17' E 104°01'0 0.0
2016-Jun-01 11:06N 01°17' E 104°01'0 0.1
2016-Jun-01 10:30N 01°17' E 104°01'0 0.0
2016-Jun-01 09:30N 01°17' E 104°01'0 0.1
2016-Jun-01 07:30N 01°17' E 104°01'0 0.2
2016-Jun-01 06:30N 01°17' E 104°01'0 0.1
2016-Jun-01 05:27N 01°17' E 104°01'0 0.0
2016-Jun-01 04:33N 01°17' E 104°01'0 0.1
2016-Jun-01 03:24N 01°17' E 104°01'0 0.0
2016-Jun-01 02:18N 01°17' E 104°01'3 3.7
2016-Jun-01 01:34N 01°16' E 103°59'5 4.8
2016-Jun-01 00:33N 01°16' E 104°04'  

Dump ship's entire track history